sensor_id;sensor_type;location;lat;lon;timestamp;P1;durP1;ratioP1;P2;durP2;ratioP2
48667;SDS011;34453;52.198;5.004;2023-02-15T00:02:24;12.48;;;9.27;;
48667;SDS011;34453;52.198;5.004;2023-02-15T00:04:50;15.30;;;8.93;;
48667;SDS011;34453;52.198;5.004;2023-02-15T00:07:16;7.45;;;6.60;;
48667;SDS011;34453;52.198;5.004;2023-02-15T00:09:41;8.85;;;7.18;;
48667;SDS011;34453;52.198;5.004;2023-02-15T00:12:09;8.15;;;7.13;;
48667;SDS011;34453;52.198;5.004;2023-02-15T00:14:35;9.10;;;8.20;;
48667;SDS011;34453;52.198;5.004;2023-02-15T00:17:00;9.57;;;8.63;;
48667;SDS011;34453;52.198;5.004;2023-02-15T00:19:25;13.00;;;9.55;;
48667;SDS011;34453;52.198;5.004;2023-02-15T00:21:50;11.38;;;9.48;;
48667;SDS011;34453;52.198;5.004;2023-02-15T00:24:17;10.15;;;8.88;;
48667;SDS011;34453;52.198;5.004;2023-02-15T00:26:42;12.38;;;10.35;;
48667;SDS011;34453;52.198;5.004;2023-02-15T00:29:09;14.50;;;11.38;;
48667;SDS011;34453;52.198;5.004;2023-02-15T00:31:34;10.40;;;9.38;;
48667;SDS011;34453;52.198;5.004;2023-02-15T00:34:04;9.48;;;8.68;;
48667;SDS011;34453;52.198;5.004;2023-02-15T00:36:30;10.00;;;8.98;;
48667;SDS011;34453;52.198;5.004;2023-02-15T00:38:55;11.52;;;10.38;;
48667;SDS011;34453;52.198;5.004;2023-02-15T00:41:21;22.33;;;12.32;;
48667;SDS011;34453;52.198;5.004;2023-02-15T00:43:46;10.82;;;8.00;;
48667;SDS011;34453;52.198;5.004;2023-02-15T00:46:11;8.65;;;6.85;;
48667;SDS011;34453;52.198;5.004;2023-02-15T00:48:37;9.02;;;6.80;;
48667;SDS011;34453;52.198;5.004;2023-02-15T00:51:02;6.70;;;6.00;;
48667;SDS011;34453;52.198;5.004;2023-02-15T00:53:28;9.07;;;6.70;;
48667;SDS011;34453;52.198;5.004;2023-02-15T00:55:53;9.07;;;8.00;;
48667;SDS011;34453;52.198;5.004;2023-02-15T00:58:19;13.05;;;11.23;;
48667;SDS011;34453;52.198;5.004;2023-02-15T01:00:45;14.63;;;12.30;;
48667;SDS011;34453;52.198;5.004;2023-02-15T01:03:11;26.95;;;17.58;;
48667;SDS011;34453;52.198;5.004;2023-02-15T01:05:36;30.90;;;20.38;;
48667;SDS011;34453;52.198;5.004;2023-02-15T01:08:01;29.80;;;18.45;;
48667;SDS011;34453;52.198;5.004;2023-02-15T01:10:27;26.30;;;17.10;;
48667;SDS011;34453;52.198;5.004;2023-02-15T01:12:52;28.95;;;19.23;;
48667;SDS011;34453;52.198;5.004;2023-02-15T01:15:18;29.38;;;17.92;;
48667;SDS011;34453;52.198;5.004;2023-02-15T01:17:43;33.20;;;18.88;;
48667;SDS011;34453;52.198;5.004;2023-02-15T01:20:14;29.23;;;18.05;;
48667;SDS011;34453;52.198;5.004;2023-02-15T01:22:40;25.02;;;18.42;;
48667;SDS011;34453;52.198;5.004;2023-02-15T01:25:05;27.42;;;18.25;;
48667;SDS011;34453;52.198;5.004;2023-02-15T01:27:30;28.55;;;18.45;;
48667;SDS011;34453;52.198;5.004;2023-02-15T01:29:56;29.15;;;16.73;;
48667;SDS011;34453;52.198;5.004;2023-02-15T01:32:21;19.10;;;14.07;;
48667;SDS011;34453;52.198;5.004;2023-02-15T01:34:47;20.17;;;14.90;;
48667;SDS011;34453;52.198;5.004;2023-02-15T01:37:13;21.15;;;15.73;;
48667;SDS011;34453;52.198;5.004;2023-02-15T01:39:38;20.95;;;14.65;;
48667;SDS011;34453;52.198;5.004;2023-02-15T01:42:04;24.17;;;15.38;;
48667;SDS011;34453;52.198;5.004;2023-02-15T01:44:46;16.83;;;13.55;;
48667;SDS011;34453;52.198;5.004;2023-02-15T01:49:37;18.48;;;13.23;;
48667;SDS011;34453;52.198;5.004;2023-02-15T01:52:06;33.53;;;18.17;;
48667;SDS011;34453;52.198;5.004;2023-02-15T01:54:32;36.40;;;20.40;;
48667;SDS011;34453;52.198;5.004;2023-02-15T01:57:03;37.13;;;20.20;;
48667;SDS011;34453;52.198;5.004;2023-02-15T01:59:29;28.20;;;18.20;;
48667;SDS011;34453;52.198;5.004;2023-02-15T02:01:57;26.35;;;19.40;;
48667;SDS011;34453;52.198;5.004;2023-02-15T02:04:29;32.67;;;19.65;;
48667;SDS011;34453;52.198;5.004;2023-02-15T02:06:56;34.10;;;20.60;;
48667;SDS011;34453;52.198;5.004;2023-02-15T02:09:22;42.65;;;23.33;;
48667;SDS011;34453;52.198;5.004;2023-02-15T02:11:47;36.03;;;21.70;;
48667;SDS011;34453;52.198;5.004;2023-02-15T02:14:13;39.45;;;24.30;;
48667;SDS011;34453;52.198;5.004;2023-02-15T02:36:57;44.20;;;24.88;;
48667;SDS011;34453;52.198;5.004;2023-02-15T02:39:30;43.80;;;25.40;;
48667;SDS011;34453;52.198;5.004;2023-02-15T02:46:59;48.38;;;19.17;;
48667;SDS011;34453;52.198;5.004;2023-02-15T02:52:00;31.45;;;18.98;;
48667;SDS011;34453;52.198;5.004;2023-02-15T02:54:25;38.20;;;22.80;;
48667;SDS011;34453;52.198;5.004;2023-02-15T02:56:50;39.08;;;21.85;;
48667;SDS011;34453;52.198;5.004;2023-02-15T02:59:20;40.05;;;22.42;;
48667;SDS011;34453;52.198;5.004;2023-02-15T03:01:54;32.72;;;20.50;;
48667;SDS011;34453;52.198;5.004;2023-02-15T03:04:21;48.77;;;23.53;;
48667;SDS011;34453;52.198;5.004;2023-02-15T03:06:50;47.83;;;26.60;;
48667;SDS011;34453;52.198;5.004;2023-02-15T03:09:19;46.75;;;25.73;;
48667;SDS011;34453;52.198;5.004;2023-02-15T03:11:46;53.30;;;28.38;;
48667;SDS011;34453;52.198;5.004;2023-02-15T03:14:12;47.90;;;25.27;;
48667;SDS011;34453;52.198;5.004;2023-02-15T03:16:39;43.63;;;26.13;;
48667;SDS011;34453;52.198;5.004;2023-02-15T03:19:08;49.50;;;27.55;;
48667;SDS011;34453;52.198;5.004;2023-02-15T03:22:17;37.13;;;23.45;;
48667;SDS011;34453;52.198;5.004;2023-02-15T03:24:29;45.58;;;24.95;;
48667;SDS011;34453;52.198;5.004;2023-02-15T03:26:56;39.05;;;22.73;;
48667;SDS011;34453;52.198;5.004;2023-02-15T03:29:23;37.30;;;22.45;;
48667;SDS011;34453;52.198;5.004;2023-02-15T03:31:52;43.53;;;23.42;;
48667;SDS011;34453;52.198;5.004;2023-02-15T03:34:18;33.38;;;20.90;;
48667;SDS011;34453;52.198;5.004;2023-02-15T03:39:48;37.20;;;21.38;;
48667;SDS011;34453;52.198;5.004;2023-02-15T03:42:33;38.45;;;20.92;;
48667;SDS011;34453;52.198;5.004;2023-02-15T03:45:14;34.10;;;19.80;;
48667;SDS011;34453;52.198;5.004;2023-02-15T03:47:44;50.80;;;21.92;;
48667;SDS011;34453;52.198;5.004;2023-02-15T03:50:18;26.27;;;15.23;;
48667;SDS011;34453;52.198;5.004;2023-02-15T03:53:03;17.58;;;11.38;;
48667;SDS011;34453;52.198;5.004;2023-02-15T03:55:30;11.07;;;9.82;;
48667;SDS011;34453;52.198;5.004;2023-02-15T03:57:55;18.05;;;13.60;;
48667;SDS011;34453;52.198;5.004;2023-02-15T04:00:42;29.00;;;16.80;;
48667;SDS011;34453;52.198;5.004;2023-02-15T04:05:54;35.53;;;19.88;;
48667;SDS011;34453;52.198;5.004;2023-02-15T04:08:19;40.65;;;22.20;;
48667;SDS011;34453;52.198;5.004;2023-02-15T04:10:45;36.85;;;23.20;;
48667;SDS011;34453;52.198;5.004;2023-02-15T04:13:29;43.92;;;23.73;;
48667;SDS011;34453;52.198;5.004;2023-02-15T04:15:54;39.55;;;22.67;;
48667;SDS011;34453;52.198;5.004;2023-02-15T04:18:38;41.38;;;22.25;;
48667;SDS011;34453;52.198;5.004;2023-02-15T04:21:23;46.47;;;23.95;;
48667;SDS011;34453;52.198;5.004;2023-02-15T04:24:07;43.42;;;25.52;;
48667;SDS011;34453;52.198;5.004;2023-02-15T04:26:51;44.20;;;23.98;;
48667;SDS011;34453;52.198;5.004;2023-02-15T04:29:20;51.38;;;27.10;;
48667;SDS011;34453;52.198;5.004;2023-02-15T04:31:46;49.13;;;24.80;;
48667;SDS011;34453;52.198;5.004;2023-02-15T04:34:12;48.88;;;25.20;;
48667;SDS011;34453;52.198;5.004;2023-02-15T04:36:37;40.38;;;24.23;;
48667;SDS011;34453;52.198;5.004;2023-02-15T04:39:03;47.00;;;25.27;;
48667;SDS011;34453;52.198;5.004;2023-02-15T04:41:28;46.17;;;25.23;;
48667;SDS011;34453;52.198;5.004;2023-02-15T04:43:53;46.95;;;23.63;;
48667;SDS011;34453;52.198;5.004;2023-02-15T04:46:19;44.80;;;24.25;;
48667;SDS011;34453;52.198;5.004;2023-02-15T04:48:44;48.42;;;27.20;;
48667;SDS011;34453;52.198;5.004;2023-02-15T04:51:09;48.55;;;25.80;;
48667;SDS011;34453;52.198;5.004;2023-02-15T04:53:35;48.72;;;24.83;;
48667;SDS011;34453;52.198;5.004;2023-02-15T04:56:00;46.70;;;25.50;;
48667;SDS011;34453;52.198;5.004;2023-02-15T04:58:26;40.45;;;23.70;;
48667;SDS011;34453;52.198;5.004;2023-02-15T05:00:51;49.05;;;26.25;;
48667;SDS011;34453;52.198;5.004;2023-02-15T05:03:16;44.58;;;23.90;;
48667;SDS011;34453;52.198;5.004;2023-02-15T05:05:42;40.53;;;25.33;;
48667;SDS011;34453;52.198;5.004;2023-02-15T05:08:07;40.35;;;24.33;;
48667;SDS011;34453;52.198;5.004;2023-02-15T05:10:32;49.30;;;26.25;;
48667;SDS011;34453;52.198;5.004;2023-02-15T05:12:58;57.08;;;26.42;;
48667;SDS011;34453;52.198;5.004;2023-02-15T05:15:23;39.20;;;24.88;;
48667;SDS011;34453;52.198;5.004;2023-02-15T05:17:48;41.88;;;23.92;;
48667;SDS011;34453;52.198;5.004;2023-02-15T05:20:13;49.25;;;23.33;;
48667;SDS011;34453;52.198;5.004;2023-02-15T05:22:39;41.85;;;22.45;;
48667;SDS011;34453;52.198;5.004;2023-02-15T05:25:05;40.92;;;22.23;;
48667;SDS011;34453;52.198;5.004;2023-02-15T05:27:54;27.80;;;18.77;;
48667;SDS011;34453;52.198;5.004;2023-02-15T05:30:37;36.50;;;20.10;;
48667;SDS011;34453;52.198;5.004;2023-02-15T05:33:04;30.10;;;20.13;;
48667;SDS011;34453;52.198;5.004;2023-02-15T05:35:30;43.88;;;24.30;;
48667;SDS011;34453;52.198;5.004;2023-02-15T05:37:55;50.17;;;25.70;;
48667;SDS011;34453;52.198;5.004;2023-02-15T05:40:20;44.40;;;23.98;;
48667;SDS011;34453;52.198;5.004;2023-02-15T05:42:45;38.95;;;24.45;;
48667;SDS011;34453;52.198;5.004;2023-02-15T05:45:11;35.33;;;21.98;;
48667;SDS011;34453;52.198;5.004;2023-02-15T05:47:36;45.75;;;22.50;;
48667;SDS011;34453;52.198;5.004;2023-02-15T05:50:01;47.55;;;24.48;;
48667;SDS011;34453;52.198;5.004;2023-02-15T05:52:27;53.03;;;24.88;;
48667;SDS011;34453;52.198;5.004;2023-02-15T05:54:52;49.65;;;26.75;;
48667;SDS011;34453;52.198;5.004;2023-02-15T05:57:17;49.05;;;27.35;;
48667;SDS011;34453;52.198;5.004;2023-02-15T05:59:42;52.30;;;26.65;;
48667;SDS011;34453;52.198;5.004;2023-02-15T06:02:08;52.35;;;26.77;;
48667;SDS011;34453;52.198;5.004;2023-02-15T06:04:33;55.78;;;27.55;;
48667;SDS011;34453;52.198;5.004;2023-02-15T06:06:58;58.53;;;29.02;;
48667;SDS011;34453;52.198;5.004;2023-02-15T06:09:23;49.58;;;26.45;;
48667;SDS011;34453;52.198;5.004;2023-02-15T06:11:49;51.80;;;26.50;;
48667;SDS011;34453;52.198;5.004;2023-02-15T06:14:14;49.88;;;26.05;;
48667;SDS011;34453;52.198;5.004;2023-02-15T06:16:39;48.65;;;25.65;;
48667;SDS011;34453;52.198;5.004;2023-02-15T06:19:04;46.25;;;26.55;;
48667;SDS011;34453;52.198;5.004;2023-02-15T06:21:30;49.50;;;26.77;;
48667;SDS011;34453;52.198;5.004;2023-02-15T06:23:55;46.47;;;26.83;;
48667;SDS011;34453;52.198;5.004;2023-02-15T06:26:21;46.20;;;27.65;;
48667;SDS011;34453;52.198;5.004;2023-02-15T06:28:46;49.65;;;26.63;;
48667;SDS011;34453;52.198;5.004;2023-02-15T06:31:11;67.97;;;27.92;;
48667;SDS011;34453;52.198;5.004;2023-02-15T06:33:36;49.83;;;26.75;;
48667;SDS011;34453;52.198;5.004;2023-02-15T06:36:03;46.97;;;27.45;;
48667;SDS011;34453;52.198;5.004;2023-02-15T06:38:28;50.22;;;27.45;;
48667;SDS011;34453;52.198;5.004;2023-02-15T06:40:54;45.20;;;25.45;;
48667;SDS011;34453;52.198;5.004;2023-02-15T06:43:19;58.63;;;28.05;;
48667;SDS011;34453;52.198;5.004;2023-02-15T06:45:44;49.75;;;24.80;;
48667;SDS011;34453;52.198;5.004;2023-02-15T06:48:10;50.38;;;25.90;;
48667;SDS011;34453;52.198;5.004;2023-02-15T06:50:36;51.38;;;25.77;;
48667;SDS011;34453;52.198;5.004;2023-02-15T06:53:01;52.08;;;27.23;;
48667;SDS011;34453;52.198;5.004;2023-02-15T06:55:27;53.17;;;28.63;;
48667;SDS011;34453;52.198;5.004;2023-02-15T06:57:52;48.80;;;25.45;;
48667;SDS011;34453;52.198;5.004;2023-02-15T07:00:17;49.38;;;27.95;;
48667;SDS011;34453;52.198;5.004;2023-02-15T07:02:43;45.92;;;26.35;;
48667;SDS011;34453;52.198;5.004;2023-02-15T07:05:08;50.35;;;25.67;;
48667;SDS011;34453;52.198;5.004;2023-02-15T07:07:34;43.95;;;25.20;;
48667;SDS011;34453;52.198;5.004;2023-02-15T07:09:59;44.72;;;25.27;;
48667;SDS011;34453;52.198;5.004;2023-02-15T07:12:24;47.60;;;24.35;;
48667;SDS011;34453;52.198;5.004;2023-02-15T07:15:09;46.20;;;25.65;;
48667;SDS011;34453;52.198;5.004;2023-02-15T07:17:35;51.80;;;26.55;;
48667;SDS011;34453;52.198;5.004;2023-02-15T07:20:02;50.30;;;25.98;;
48667;SDS011;34453;52.198;5.004;2023-02-15T07:22:27;53.78;;;27.80;;
48667;SDS011;34453;52.198;5.004;2023-02-15T07:24:52;62.00;;;27.65;;
48667;SDS011;34453;52.198;5.004;2023-02-15T07:27:19;47.13;;;26.50;;
48667;SDS011;34453;52.198;5.004;2023-02-15T07:29:45;53.72;;;26.85;;
48667;SDS011;34453;52.198;5.004;2023-02-15T07:32:10;56.15;;;28.27;;
48667;SDS011;34453;52.198;5.004;2023-02-15T07:34:35;44.53;;;25.20;;
48667;SDS011;34453;52.198;5.004;2023-02-15T07:37:01;51.85;;;27.15;;
48667;SDS011;34453;52.198;5.004;2023-02-15T07:39:26;61.50;;;28.58;;
48667;SDS011;34453;52.198;5.004;2023-02-15T07:41:51;53.97;;;28.17;;
48667;SDS011;34453;52.198;5.004;2023-02-15T07:44:16;54.38;;;27.15;;
48667;SDS011;34453;52.198;5.004;2023-02-15T07:46:42;48.67;;;28.48;;
48667;SDS011;34453;52.198;5.004;2023-02-15T07:49:07;46.95;;;25.85;;
48667;SDS011;34453;52.198;5.004;2023-02-15T07:51:33;53.30;;;27.35;;
48667;SDS011;34453;52.198;5.004;2023-02-15T07:53:58;55.63;;;32.72;;
48667;SDS011;34453;52.198;5.004;2023-02-15T07:56:23;57.05;;;31.67;;
48667;SDS011;34453;52.198;5.004;2023-02-15T07:58:49;65.20;;;38.55;;
48667;SDS011;34453;52.198;5.004;2023-02-15T08:01:21;52.75;;;32.08;;
48667;SDS011;34453;52.198;5.004;2023-02-15T08:03:47;56.58;;;32.15;;
48667;SDS011;34453;52.198;5.004;2023-02-15T08:06:13;74.95;;;42.80;;
48667;SDS011;34453;52.198;5.004;2023-02-15T08:08:38;58.78;;;29.95;;
48667;SDS011;34453;52.198;5.004;2023-02-15T08:13:48;54.92;;;29.95;;
48667;SDS011;34453;52.198;5.004;2023-02-15T08:16:27;60.25;;;33.85;;
48667;SDS011;34453;52.198;5.004;2023-02-15T08:18:52;58.20;;;28.77;;
48667;SDS011;34453;52.198;5.004;2023-02-15T08:21:18;58.40;;;30.15;;
48667;SDS011;34453;52.198;5.004;2023-02-15T08:23:44;57.85;;;29.85;;
48667;SDS011;34453;52.198;5.004;2023-02-15T08:26:09;53.28;;;29.75;;
48667;SDS011;34453;52.198;5.004;2023-02-15T08:28:34;59.92;;;29.95;;
48667;SDS011;34453;52.198;5.004;2023-02-15T08:33:31;52.93;;;28.57;;
48667;SDS011;34453;52.198;5.004;2023-02-15T08:35:56;53.03;;;30.40;;
48667;SDS011;34453;52.198;5.004;2023-02-15T08:38:22;49.03;;;28.95;;
48667;SDS011;34453;52.198;5.004;2023-02-15T08:40:47;50.03;;;30.15;;
48667;SDS011;34453;52.198;5.004;2023-02-15T08:43:12;62.40;;;31.20;;
48667;SDS011;34453;52.198;5.004;2023-02-15T08:45:37;54.30;;;30.73;;
48667;SDS011;34453;52.198;5.004;2023-02-15T08:48:03;66.93;;;33.72;;
48667;SDS011;34453;52.198;5.004;2023-02-15T08:50:28;59.05;;;31.08;;
48667;SDS011;34453;52.198;5.004;2023-02-15T08:52:53;59.13;;;31.40;;
48667;SDS011;34453;52.198;5.004;2023-02-15T08:55:18;64.53;;;34.47;;
48667;SDS011;34453;52.198;5.004;2023-02-15T08:57:44;61.95;;;30.00;;
48667;SDS011;34453;52.198;5.004;2023-02-15T09:00:10;60.53;;;30.05;;
48667;SDS011;34453;52.198;5.004;2023-02-15T09:02:36;53.20;;;29.92;;
48667;SDS011;34453;52.198;5.004;2023-02-15T09:05:02;55.00;;;34.60;;
48667;SDS011;34453;52.198;5.004;2023-02-15T09:07:27;52.45;;;30.83;;
48667;SDS011;34453;52.198;5.004;2023-02-15T09:09:53;50.22;;;30.23;;
48667;SDS011;34453;52.198;5.004;2023-02-15T09:12:19;58.08;;;30.10;;
48667;SDS011;34453;52.198;5.004;2023-02-15T09:14:44;52.95;;;30.63;;
48667;SDS011;34453;52.198;5.004;2023-02-15T09:17:09;55.63;;;32.10;;
48667;SDS011;34453;52.198;5.004;2023-02-15T09:19:34;58.13;;;29.27;;
48667;SDS011;34453;52.198;5.004;2023-02-15T09:22:00;50.45;;;28.75;;
48667;SDS011;34453;52.198;5.004;2023-02-15T09:24:25;56.28;;;30.33;;
48667;SDS011;34453;52.198;5.004;2023-02-15T09:26:50;57.47;;;31.25;;
48667;SDS011;34453;52.198;5.004;2023-02-15T09:29:16;57.22;;;29.65;;
48667;SDS011;34453;52.198;5.004;2023-02-15T09:31:43;54.13;;;31.33;;
48667;SDS011;34453;52.198;5.004;2023-02-15T09:34:09;59.17;;;30.05;;
48667;SDS011;34453;52.198;5.004;2023-02-15T09:36:36;48.88;;;27.88;;
48667;SDS011;34453;52.198;5.004;2023-02-15T09:41:38;57.60;;;29.83;;
48667;SDS011;34453;52.198;5.004;2023-02-15T09:55:09;47.88;;;27.00;;
48667;SDS011;34453;52.198;5.004;2023-02-15T09:59:47;54.92;;;29.40;;
48667;SDS011;34453;52.198;5.004;2023-02-15T10:25:43;49.78;;;27.98;;
48667;SDS011;34453;52.198;5.004;2023-02-15T10:28:15;43.22;;;25.15;;
48667;SDS011;34453;52.198;5.004;2023-02-15T10:30:51;46.38;;;25.75;;
48667;SDS011;34453;52.198;5.004;2023-02-15T10:39:05;46.05;;;26.95;;
48667;SDS011;34453;52.198;5.004;2023-02-15T10:44:17;52.05;;;27.23;;
48667;SDS011;34453;52.198;5.004;2023-02-15T10:52:07;50.90;;;28.98;;
48667;SDS011;34453;52.198;5.004;2023-02-15T10:54:48;51.72;;;27.65;;
48667;SDS011;34453;52.198;5.004;2023-02-15T10:59:54;49.75;;;27.63;;
48667;SDS011;34453;52.198;5.004;2023-02-15T11:07:25;52.42;;;28.92;;
48667;SDS011;34453;52.198;5.004;2023-02-15T11:09:53;49.35;;;27.70;;
48667;SDS011;34453;52.198;5.004;2023-02-15T11:12:22;55.03;;;28.85;;
48667;SDS011;34453;52.198;5.004;2023-02-15T11:14:57;56.00;;;29.33;;
48667;SDS011;34453;52.198;5.004;2023-02-15T11:17:28;50.97;;;28.55;;
48667;SDS011;34453;52.198;5.004;2023-02-15T11:20:02;54.92;;;29.38;;
48667;SDS011;34453;52.198;5.004;2023-02-15T11:22:30;54.60;;;30.00;;
48667;SDS011;34453;52.198;5.004;2023-02-15T11:24:57;54.92;;;29.77;;
48667;SDS011;34453;52.198;5.004;2023-02-15T11:27:25;52.45;;;28.17;;
48667;SDS011;34453;52.198;5.004;2023-02-15T11:29:59;49.80;;;28.80;;
48667;SDS011;34453;52.198;5.004;2023-02-15T11:35:04;54.60;;;30.35;;
48667;SDS011;34453;52.198;5.004;2023-02-15T11:40:22;56.88;;;30.58;;
48667;SDS011;34453;52.198;5.004;2023-02-15T11:42:49;49.63;;;31.08;;
48667;SDS011;34453;52.198;5.004;2023-02-15T11:47:41;53.78;;;32.58;;
48667;SDS011;34453;52.198;5.004;2023-02-15T11:50:11;51.33;;;29.20;;
48667;SDS011;34453;52.198;5.004;2023-02-15T11:52:37;59.00;;;33.75;;
48667;SDS011;34453;52.198;5.004;2023-02-15T11:55:09;58.05;;;29.42;;
48667;SDS011;34453;52.198;5.004;2023-02-15T11:57:37;53.40;;;31.00;;
48667;SDS011;34453;52.198;5.004;2023-02-15T12:00:15;54.70;;;31.38;;
48667;SDS011;34453;52.198;5.004;2023-02-15T12:02:45;54.00;;;31.55;;
48667;SDS011;34453;52.198;5.004;2023-02-15T12:05:13;56.47;;;30.40;;
48667;SDS011;34453;52.198;5.004;2023-02-15T12:10:18;56.93;;;32.30;;
48667;SDS011;34453;52.198;5.004;2023-02-15T12:12:45;59.60;;;31.55;;
48667;SDS011;34453;52.198;5.004;2023-02-15T12:15:10;60.45;;;30.58;;
48667;SDS011;34453;52.198;5.004;2023-02-15T12:17:47;52.97;;;31.55;;
48667;SDS011;34453;52.198;5.004;2023-02-15T12:22:38;55.47;;;31.75;;
48667;SDS011;34453;52.198;5.004;2023-02-15T12:25:19;62.85;;;33.42;;
48667;SDS011;34453;52.198;5.004;2023-02-15T12:27:45;61.03;;;32.13;;
48667;SDS011;34453;52.198;5.004;2023-02-15T12:30:16;60.15;;;32.58;;
48667;SDS011;34453;52.198;5.004;2023-02-15T12:32:51;56.60;;;32.47;;
48667;SDS011;34453;52.198;5.004;2023-02-15T12:35:24;56.95;;;32.80;;
48667;SDS011;34453;52.198;5.004;2023-02-15T12:37:55;53.55;;;32.30;;
48667;SDS011;34453;52.198;5.004;2023-02-15T12:40:24;57.80;;;33.13;;
48667;SDS011;34453;52.198;5.004;2023-02-15T12:42:51;57.45;;;32.35;;
48667;SDS011;34453;52.198;5.004;2023-02-15T12:45:30;54.17;;;32.45;;
48667;SDS011;34453;52.198;5.004;2023-02-15T12:50:33;59.20;;;33.90;;
48667;SDS011;34453;52.198;5.004;2023-02-15T12:53:06;53.85;;;32.25;;
48667;SDS011;34453;52.198;5.004;2023-02-15T12:55:32;62.65;;;34.30;;
48667;SDS011;34453;52.198;5.004;2023-02-15T12:58:17;64.80;;;36.10;;
48667;SDS011;34453;52.198;5.004;2023-02-15T13:00:43;59.50;;;33.05;;
48667;SDS011;34453;52.198;5.004;2023-02-15T13:03:15;57.53;;;33.20;;
48667;SDS011;34453;52.198;5.004;2023-02-15T13:05:42;66.40;;;33.25;;
48667;SDS011;34453;52.198;5.004;2023-02-15T13:08:13;56.55;;;33.20;;
48667;SDS011;34453;52.198;5.004;2023-02-15T13:13:18;63.97;;;36.47;;
48667;SDS011;34453;52.198;5.004;2023-02-15T13:15:46;64.75;;;34.63;;
48667;SDS011;34453;52.198;5.004;2023-02-15T13:18:23;59.90;;;34.83;;
48667;SDS011;34453;52.198;5.004;2023-02-15T13:20:50;66.35;;;34.92;;
48667;SDS011;34453;52.198;5.004;2023-02-15T13:23:25;54.88;;;32.80;;
48667;SDS011;34453;52.198;5.004;2023-02-15T13:25:52;67.80;;;33.78;;
48667;SDS011;34453;52.198;5.004;2023-02-15T13:28:20;56.20;;;32.53;;
48667;SDS011;34453;52.198;5.004;2023-02-15T13:30:47;57.88;;;34.17;;
48667;SDS011;34453;52.198;5.004;2023-02-15T13:41:04;57.25;;;33.05;;
48667;SDS011;34453;52.198;5.004;2023-02-15T13:43:50;58.05;;;32.90;;
48667;SDS011;34453;52.198;5.004;2023-02-15T13:46:19;55.53;;;33.55;;
48667;SDS011;34453;52.198;5.004;2023-02-15T13:59:25;53.25;;;32.80;;
48667;SDS011;34453;52.198;5.004;2023-02-15T14:12:20;58.85;;;33.80;;
48667;SDS011;34453;52.198;5.004;2023-02-15T14:22:45;59.45;;;34.78;;
48667;SDS011;34453;52.198;5.004;2023-02-15T14:25:38;63.92;;;34.15;;
48667;SDS011;34453;52.198;5.004;2023-02-15T14:28:03;65.57;;;36.08;;
48667;SDS011;34453;52.198;5.004;2023-02-15T14:30:32;65.28;;;34.05;;
48667;SDS011;34453;52.198;5.004;2023-02-15T14:33:02;62.53;;;34.45;;
48667;SDS011;34453;52.198;5.004;2023-02-15T14:35:29;63.47;;;34.67;;
48667;SDS011;34453;52.198;5.004;2023-02-15T14:40:28;61.20;;;36.53;;
48667;SDS011;34453;52.198;5.004;2023-02-15T14:43:16;61.22;;;34.50;;
48667;SDS011;34453;52.198;5.004;2023-02-15T14:46:07;61.65;;;34.00;;
48667;SDS011;34453;52.198;5.004;2023-02-15T14:48:30;58.00;;;32.13;;
48667;SDS011;34453;52.198;5.004;2023-02-15T14:50:56;57.35;;;33.92;;
48667;SDS011;34453;52.198;5.004;2023-02-15T14:53:39;55.97;;;33.78;;
48667;SDS011;34453;52.198;5.004;2023-02-15T14:58:38;54.03;;;33.95;;
48667;SDS011;34453;52.198;5.004;2023-02-15T15:01:07;59.40;;;33.67;;
48667;SDS011;34453;52.198;5.004;2023-02-15T15:03:32;61.75;;;35.45;;
48667;SDS011;34453;52.198;5.004;2023-02-15T15:05:58;60.85;;;33.63;;
48667;SDS011;34453;52.198;5.004;2023-02-15T15:08:27;59.03;;;33.53;;
48667;SDS011;34453;52.198;5.004;2023-02-15T15:10:53;59.92;;;35.85;;
48667;SDS011;34453;52.198;5.004;2023-02-15T15:15:57;60.13;;;33.30;;
48667;SDS011;34453;52.198;5.004;2023-02-15T15:18:45;58.08;;;34.03;;
48667;SDS011;34453;52.198;5.004;2023-02-15T15:21:11;59.55;;;34.85;;
48667;SDS011;34453;52.198;5.004;2023-02-15T15:23:56;56.30;;;33.42;;
48667;SDS011;34453;52.198;5.004;2023-02-15T15:26:29;66.43;;;36.58;;
48667;SDS011;34453;52.198;5.004;2023-02-15T15:28:57;58.50;;;34.53;;
48667;SDS011;34453;52.198;5.004;2023-02-15T15:31:43;54.75;;;33.08;;
48667;SDS011;34453;52.198;5.004;2023-02-15T15:41:42;62.50;;;35.47;;
48667;SDS011;34453;52.198;5.004;2023-02-15T15:47:06;60.40;;;32.95;;
48667;SDS011;34453;52.198;5.004;2023-02-15T15:49:36;62.55;;;33.58;;
48667;SDS011;34453;52.198;5.004;2023-02-15T15:52:07;59.83;;;33.13;;
48667;SDS011;34453;52.198;5.004;2023-02-15T15:54:33;60.47;;;33.42;;
48667;SDS011;34453;52.198;5.004;2023-02-15T15:57:00;63.17;;;33.65;;
48667;SDS011;34453;52.198;5.004;2023-02-15T15:59:30;60.95;;;32.00;;
48667;SDS011;34453;52.198;5.004;2023-02-15T16:01:56;53.97;;;32.55;;
48667;SDS011;34453;52.198;5.004;2023-02-15T16:04:29;58.58;;;33.40;;
48667;SDS011;34453;52.198;5.004;2023-02-15T16:06:56;53.33;;;31.88;;
48667;SDS011;34453;52.198;5.004;2023-02-15T16:09:23;59.30;;;35.72;;
48667;SDS011;34453;52.198;5.004;2023-02-15T16:11:50;57.45;;;33.13;;
48667;SDS011;34453;52.198;5.004;2023-02-15T16:14:18;61.97;;;35.90;;
48667;SDS011;34453;52.198;5.004;2023-02-15T16:16:48;63.78;;;33.67;;
48667;SDS011;34453;52.198;5.004;2023-02-15T16:19:19;59.30;;;33.05;;
48667;SDS011;34453;52.198;5.004;2023-02-15T16:21:46;58.15;;;33.88;;
48667;SDS011;34453;52.198;5.004;2023-02-15T16:24:20;64.07;;;33.85;;
48667;SDS011;34453;52.198;5.004;2023-02-15T16:26:53;56.53;;;31.90;;
48667;SDS011;34453;52.198;5.004;2023-02-15T16:29:30;61.70;;;31.33;;
48667;SDS011;34453;52.198;5.004;2023-02-15T16:32:00;55.28;;;32.40;;
48667;SDS011;34453;52.198;5.004;2023-02-15T16:34:25;65.90;;;33.42;;
48667;SDS011;34453;52.198;5.004;2023-02-15T16:37:11;53.90;;;30.00;;
48667;SDS011;34453;52.198;5.004;2023-02-15T16:39:38;58.80;;;31.52;;
48667;SDS011;34453;52.198;5.004;2023-02-15T16:42:05;58.97;;;31.35;;
48667;SDS011;34453;52.198;5.004;2023-02-15T16:44:31;67.22;;;33.10;;
48667;SDS011;34453;52.198;5.004;2023-02-15T16:46:57;65.28;;;31.98;;
48667;SDS011;34453;52.198;5.004;2023-02-15T16:49:27;58.20;;;31.30;;
48667;SDS011;34453;52.198;5.004;2023-02-15T16:51:57;59.33;;;31.67;;
48667;SDS011;34453;52.198;5.004;2023-02-15T16:54:24;53.97;;;32.67;;
48667;SDS011;34453;52.198;5.004;2023-02-15T16:56:50;67.13;;;33.80;;
48667;SDS011;34453;52.198;5.004;2023-02-15T16:59:26;63.90;;;32.25;;
48667;SDS011;34453;52.198;5.004;2023-02-15T17:01:53;61.42;;;33.60;;
48667;SDS011;34453;52.198;5.004;2023-02-15T17:09:26;57.90;;;30.73;;
48667;SDS011;34453;52.198;5.004;2023-02-15T17:11:51;64.60;;;32.92;;
48667;SDS011;34453;52.198;5.004;2023-02-15T17:14:20;62.55;;;31.65;;
48667;SDS011;34453;52.198;5.004;2023-02-15T17:16:53;58.90;;;31.75;;
48667;SDS011;34453;52.198;5.004;2023-02-15T17:19:23;66.10;;;33.95;;
48667;SDS011;34453;52.198;5.004;2023-02-15T17:22:14;56.83;;;31.55;;
48667;SDS011;34453;52.198;5.004;2023-02-15T17:27:01;67.55;;;34.40;;
48667;SDS011;34453;52.198;5.004;2023-02-15T17:31:52;58.90;;;33.17;;
48667;SDS011;34453;52.198;5.004;2023-02-15T17:37:09;62.70;;;34.55;;
48667;SDS011;34453;52.198;5.004;2023-02-15T17:39:37;64.10;;;34.33;;